KDET/DET METAR and TAF weather

Enter ICAO airport designator
Station Type Date Time Source
KDET METAR 2020/06/06 14:53 UTC NOAA

KDET 061453Z 20003KT 10SM CLR 24/13 A2998 RMK AO2 SLP149 T02390128 50007


Station Type Date Time Source
KDET Decoded METAR 2020/06/06 14:53 UTC NOAA

DETROIT CITY AIRPORT, MI, United States (KDET) 42-25N 083-01W 190M
Jun 06, 2020 - 10:53 AM EDT / 2020.06.06 1453 UTC
Wind: from the SSW (200 degrees) at 3 MPH (3 KT):0
Visibility: 10 mile(s):0
Sky conditions: clear
Temperature: 75.0 F (23.9 C)
Dew Point: 55.0 F (12.8 C)
Relative Humidity: 49%
Pressure (altimeter): 29.98 in. Hg (1015 hPa)
Pressure tendency: 0.02 inches (0.7 hPa) higher than three hours ago
ob: KDET 061453Z 20003KT 10SM CLR 24/13 A2998 RMK AO2 SLP149 T02390128 50007
cycle: 15

Station Type Date Time Source
KDET TAF 2020/06/06 12:22 UTC NOAA

TAF KDET 061120Z 0612/0712 32006KT P6SM SKC
FM061800 32012G20KT P6SM SCT060
FM070100 03008KT P6SM SCT050
FM070700 01004KT P6SM SKC

Example: see airport list